الصفحة الرئيسية
METAR-TAF:

METAR-TAF

مطار :

مطار معيتيقة الدولي

طرابلس, ليبيا

دائرة عرض: 32-54N, خط طول: 13-17E, ارتفاع: 11 متر

مراقبة الطقس الحالي

تاريخ ووقت الإصدار 1ساعة و 24 دقيقة قبل الساعة 21:30UTC
ريح 7 عقدة من الشرق
درجة الحرارة 27°درجة مئوية
الرطوبة 74%
ضغط 1015 hPa
الرؤية: 7000 متر
غيوم قليلة على ارتفاع 2500 قدم

METAR: HLLM 152130Z 10007KT 7000 FEW025 27/22 Q1015

زمن: 00:54 (22:54 UTC)

توقعات

تاريخ ووقت الإصدار 35ساعات و 54 دقيقة قبل الساعة 11:00UTC
التوقعات صالحة من14 الساعة 12 UTC إلى 15 الساعة 12 UTC
ريح 12 عقدة من الشمال/الشمال الغربي
الرؤية 10 كم أو أكثر
غيوم متفرقة على ارتفاع 3000 قدم
غيوم متفرقة على ارتفاع 8000 قدم
أصبح
من 14 الساعة 20 UTC إلى 14 الساعة 22 UTC
ريح 2 عقدةمن اتجاهات متغيرة

TAF: HLLM 141100Z 1412/1512 34012KT 9999 SCT030 SCT080 BECMG 1420/1422 VRB02KT

أرصاد الطقس والتوقعات من أكثر من 4000 مطار (تقارير الطقس للمطار METAR والتنبؤ بالطقس بالمطارTAF).

المحطات المتاحة هي النقط الصفراء والحمراء على الخريطة.

حرك المؤشر فوق النقطة لمعرفة اسم المحطة.

ثم انقر لمعرفة أرصاد وتوقعات الطقس.

لتغيير الخارطة: اضغط على الأزرار الخضراء مع رمز الصليب الأسود للتكبير. على الزر الأخضر مع شرطة للتصغير، أو على الأسهم الخضراء للخرائط المجاورة.


METAR-TAF: